Hauptseite
METAR-TAF:

METAR-TAF

Flughäfen :

Paganella, Italien

Breite: 46-09N, Länge: 011-02E, Höhe: 2125 m

Beobachtung

Neuester Wetterbericht von vor 1 Stunde und 13 Minuten, um 00:55 UTC
Wind 10 kt aus Süd/Südwest
Temperatur 7°C
Luftfeuchtigkeit 100%
Luftdruck 1025 hPa
Sichtweite weniger als 50 m
Nebel

METAR: LIVP 260055Z 21010KT 0000 FG VV/// 07/07 Q1025 RETS RMK MON INVIS VAL INVIS VIS MIN 0000

Zeit: 04:08 (02:08 UTC)


TAF: fehlend

Wetterbeobachtungen und Prognosen von mehr als 4000 Flughäfen (METAR und TAF Bericht).

Die verfügbaren Stationen werden durch gelbe und rote Markierungen auf der Karte dargestellt.

Führen Sie die Maus auf sie, um den Namen der Station zu sehen.

Darauf klicken, um die Beobachtung von Wetterbeobachtungen und Prognosen zu sehen.

Um die Karte zu ändern : klicken Sie auf den grünen Tasten mit einem schwarzen Kreuz Zum Vergrößern, auf den grünen Button mit einem Gedankenstrich zu verkleinern, oder auf die grünen Pfeile für benachbarte Karten.


METAR-TAF: